Terminal Aerodrome Forecast
Issued by NWS

Home | Current Version | Previous Version | Text Only | Print | Product List | Glossary On
Versions: 1 2 3 4 5 6 7 8 9 10 11 12 13 14 15 16
443
FTUS45 KTFX 221720
TAFGTF
TAF
KGTF 221720Z 2218/2318 25030G42KT P6SM SCT200 WS020/25050KT
      TEMPO 2219/2223 25035G55KT
     FM230000 27028G35KT P6SM SCT250
     FM230400 24011KT P6SM FEW250=

USA.gov is the U.S. government's official web portal to all federal, state and local government web resources and services.